Weather at San Diego International Airport

Public forecast

Using degrees Fahrenheit for public forecast. Weather courtesy of forecast.io.

Current aviation weather report (METAR) for San Diego International Airport

Retrieved 2021/11/27 13:51 UTC (15 minutes ago):

KSAN 271351Z 00000KT 10SM CLR 08/M01 A3007 RMK AO2 SLP182 T00781011

Aviation forecast (TAF) for San Diego International Airport

Retrieved 2021/11/27 12:22 UTC (2 hours ago):

TAF KSAN 271120Z 2712/2818 VRB04KT P6SM SKC FM272000 28007KT P6SM FEW250 FM280100 VRB04KT P6SM SCT250